Terminal Aerodrome Forecast
Issued by NWS Wilmington, OH

Current Version | Previous Version | Text Only | Print | Product List | Glossary Off
Versions: 1 2 3 4 5 6 7 8 9 10 11 12 13 14 15 16 17 18 19 20 21 22 23 24 25 26 27

000
FTUS41 KILN 230800 AAA
TAFCVG
TAF AMD
KCVG 230858Z 2309/2412 17009KT P6SM OVC012
      TEMPO 2314/2317 -SHRA
     FM232000 12005KT 5SM -SHRA BR OVC010
     FM240000 08005KT 5SM BR OVC015
     FM240400 12005KT 5SM -SHRA BR OVC010
     FM240800 14008KT 5SM -SHRA BR OVC007=

USA.gov is the U.S. government's official web portal to all federal, state and local government web resources and services.